Time;durP1;ratioP1;P1;durP2;ratioP2;P2;SDS_P1;SDS_P2;PMS_P1;PMS_P2;Temp;Humidity;BMP_temperature;BMP_pressure;BME280_temperature;BME280_humidity;BME280_pressure;Samples;Min_cycle;Max_cycle;Signal;HPM_P1;HPM_P2
2021/05/05 02:46:04;;;;;;;20.35;19.05;;;11.60;99.90;;;;;;6073486;22;89310;31
2021/05/05 02:48:32;;;;;;;22.05;20.95;;;11.60;99.90;;;;;;4924896;28;88090;-86
2021/05/05 02:50:57;;;;;;;25.70;24.30;;;11.50;99.90;;;;;;4928295;28;87608;-86
2021/05/05 02:53:23;;;;;;;22.50;21.10;;;11.50;99.90;;;;;;4930119;28;87081;-85
2021/05/05 02:55:49;;;;;;;21.33;20.08;;;11.60;99.90;;;;;;4927964;28;86958;-84
2021/05/05 02:58:14;;;;;;;22.30;21.00;;;11.60;99.90;;;;;;4928921;28;86612;-86
2021/05/05 03:00:40;;;;;;;15.63;14.63;;;11.60;99.90;;;;;;4928735;28;87261;-85
2021/05/05 03:03:06;;;;;;;14.10;13.15;;;11.60;99.90;;;;;;4929596;28;86953;-85
2021/05/05 03:05:31;;;;;;;14.50;13.52;;;11.70;99.90;;;;;;4928228;28;87363;-85
2021/05/05 03:07:57;;;;;;;15.90;15.00;;;11.70;99.90;;;;;;4929709;28;86927;-84
2021/05/05 03:10:23;;;;;;;17.65;16.75;;;11.70;99.90;;;;;;4930494;28;87315;-83
2021/05/05 03:12:49;;;;;;;19.20;18.10;;;11.70;99.90;;;;;;4929113;28;86977;-83
2021/05/05 03:15:15;;;;;;;23.00;21.80;;;11.70;99.90;;;;;;4928662;28;86721;-85
2021/05/05 03:17:42;;;;;;;25.45;23.95;;;11.70;99.90;;;;;;4935811;28;87103;-84
2021/05/05 03:20:10;;;;;;;24.38;23.17;;;11.70;99.90;;;;;;4927006;28;88109;-85
2021/05/05 03:22:37;;;;;;;28.58;26.98;;;11.80;99.90;;;;;;4927119;28;88377;-83
2021/05/05 03:25:05;;;;;;;29.67;28.08;;;11.80;99.90;;;;;;4928720;28;86777;-84
2021/05/05 03:27:31;;;;;;;23.55;22.15;;;11.80;99.90;;;;;;4937804;28;86886;-84
2021/05/05 03:29:57;;;;;;;22.42;21.02;;;11.80;99.90;;;;;;4948404;28;88615;-85
2021/05/05 03:32:22;;;;;;;21.58;20.38;;;11.70;99.90;;;;;;4948951;28;88407;-83
2021/05/05 03:34:48;;;;;;;18.35;17.25;;;11.70;99.90;;;;;;4949226;28;86920;-85
2021/05/05 03:37:14;;;;;;;16.58;15.45;;;11.70;99.90;;;;;;4930174;28;86956;-84
2021/05/05 03:39:39;;;;;;;14.63;13.73;;;11.70;99.90;;;;;;4928424;28;87417;-83
2021/05/05 03:42:06;;;;;;;13.48;12.57;;;11.70;99.90;;;;;;4914413;28;86888;-85
2021/05/05 03:44:35;;;;;;;12.80;11.80;;;11.70;99.90;;;;;;4893120;28;86565;-84
2021/05/05 03:47:02;;;;;;;13.50;12.50;;;;;;;;;;4929440;28;86062;-84
2021/05/05 03:49:28;;;;;;;14.80;13.80;;;;;;;;;;4930994;28;87215;-87
2021/05/05 03:51:53;;;;;;;11.40;10.55;;;11.70;99.90;;;;;;4914686;28;87429;-82
2021/05/05 03:54:19;;;;;;;16.05;14.75;;;;;;;;;;4928716;28;88418;-85
2021/05/05 03:56:45;;;;;;;13.68;12.68;;;11.70;99.90;;;;;;4916325;28;86978;-83
2021/05/05 03:59:11;;;;;;;12.20;11.38;;;11.80;99.90;;;;;;4915590;28;87058;-83
2021/05/05 04:01:37;;;;;;;15.07;13.98;;;12.10;99.90;;;;;;4927860;28;87531;-87
2021/05/05 04:04:03;;;;;;;18.77;17.27;;;11.60;99.90;;;;;;4927391;28;87266;-85
2021/05/05 04:06:29;;;;;;;15.85;14.75;;;11.60;99.90;;;;;;4941595;28;87087;-86
2021/05/05 04:08:56;;;;;;;17.02;15.93;;;12.20;99.90;;;;;;4934250;28;87183;-85
2021/05/05 04:11:21;;;;;;;19.92;18.65;;;11.50;99.90;;;;;;4929619;28;86300;-83
2021/05/05 04:13:47;;;;;;;22.60;21.25;;;11.60;99.90;;;;;;4932827;28;86955;-83
2021/05/05 04:16:13;;;;;;;19.50;18.30;;;11.50;99.90;;;;;;4916507;28;87020;-84
2021/05/05 04:18:41;;;;;;;27.08;25.13;;;11.40;99.90;;;;;;4933555;28;87908;-85
2021/05/05 04:21:08;;;;;;;23.48;21.77;;;11.40;99.90;;;;;;4922515;28;87925;-83
2021/05/05 04:23:35;;;;;;;15.77;14.68;;;11.30;99.90;;;;;;4920251;28;86604;-84
2021/05/05 04:26:01;;;;;;;17.00;15.68;;;;;;;;;;4929414;28;86899;-83
2021/05/05 04:28:28;;;;;;;15.98;14.88;;;11.40;99.90;;;;;;4925888;28;87869;-84
2021/05/05 04:30:54;;;;;;;13.68;12.57;;;11.40;99.90;;;;;;4920292;28;87071;-84
2021/05/05 04:33:20;;;;;;;21.50;20.00;;;11.40;99.90;;;;;;4931090;28;86164;-84
2021/05/05 04:35:46;;;;;;;19.67;18.58;;;11.30;99.90;;;;;;4927825;28;85927;-83
2021/05/05 04:38:12;;;;;;;21.38;20.13;;;11.40;99.90;;;;;;4922387;28;87586;-84
2021/05/05 04:40:37;;;;;;;20.55;19.35;;;11.40;99.90;;;;;;4925547;28;87210;-86
2021/05/05 04:43:03;;;;;;;19.58;18.48;;;11.30;99.90;;;;;;4914022;28;87847;-86
2021/05/05 04:45:29;;;;;;;23.63;22.17;;;11.30;99.90;;;;;;4923792;28;87155;-86
2021/05/05 04:47:54;;;;;;;19.77;18.48;;;11.40;99.90;;;;;;4918042;28;87225;-85
2021/05/05 04:50:20;;;;;;;20.30;19.00;;;11.40;99.90;;;;;;4920098;28;88439;-84
2021/05/05 04:52:49;;;;;;;17.55;16.35;;;11.10;99.90;;;;;;4922316;28;86693;-84
2021/05/05 04:55:18;;;;;;;16.13;14.95;;;11.20;99.90;;;;;;4920483;28;87177;-85
2021/05/05 04:57:47;;;;;;;15.25;14.25;;;11.10;99.90;;;;;;4913591;28;88185;-84
2021/05/05 05:00:14;;;;;;;14.38;13.27;;;11.10;99.90;;;;;;4915887;28;91690;-86
2021/05/05 05:02:39;;;;;;;15.05;13.93;;;11.20;99.90;;;;;;4914963;28;86991;-84
2021/05/05 05:05:07;;;;;;;12.25;11.23;;;11.20;99.90;;;;;;4918992;28;87033;-87
2021/05/05 05:07:35;;;;;;;13.00;12.15;;;11.10;99.90;;;;;;4902248;28;88653;-86
2021/05/05 05:10:03;;;;;;;8.57;8.25;;;10.30;99.90;;;;;;4921351;28;89272;-86
2021/05/05 05:12:31;;;;;;;9.77;9.20;;;10.30;99.90;;;;;;4934532;28;88416;-82
2021/05/05 05:50:28;;;;;;;7.60;7.13;;;9.60;99.90;;;;;;4917155;28;86951;-83
2021/05/05 05:52:53;;;;;;;9.23;8.63;;;9.60;99.90;;;;;;4931553;28;86573;-83
2021/05/05 05:55:20;;;;;;;12.88;12.40;;;9.60;99.90;;;;;;4928507;28;87024;-84
2021/05/05 05:57:48;;;;;;;11.82;11.43;;;9.70;99.90;;;;;;4908330;28;90466;-83
2021/05/05 06:00:17;;;;;;;13.60;13.10;;;9.70;99.90;;;;;;4928431;28;86242;-83
2021/05/05 06:02:43;;;;;;;10.80;10.40;;;9.80;99.90;;;;;;4924501;28;87090;-82
2021/05/05 06:05:10;;;;;;;6.30;6.00;;;9.90;99.90;;;;;;4920117;28;86610;-85
2021/05/05 06:07:35;;;;;;;6.25;6.03;;;9.90;99.90;;;;;;4920099;28;88173;-82
2021/05/05 06:10:02;;;;;;;9.80;9.40;;;10.00;99.90;;;;;;4927939;28;87145;-82
2021/05/05 06:12:28;;;;;;;9.05;8.75;;;9.90;99.90;;;;;;4927159;28;87037;-82
2021/05/05 06:14:55;;;;;;;10.30;9.90;;;9.90;99.90;;;;;;4919230;28;86942;-82
2021/05/05 06:17:21;;;;;;;8.98;8.57;;;;;;;;;;4913797;28;87099;-86
2021/05/05 06:19:47;;;;;;;7.28;6.97;;;9.80;99.90;;;;;;4908215;28;87952;-82
2021/05/05 06:22:12;;;;;;;8.30;7.90;;;9.90;99.90;;;;;;4908777;28;87022;-82
2021/05/05 06:24:44;;;;;;;7.50;7.20;;;9.80;99.90;;;;;;4907387;28;86265;-82
2021/05/05 06:27:09;;;;;;;8.07;7.63;;;9.70;99.90;;;;;;4908893;28;87239;-82
2021/05/05 06:29:35;;;;;;;10.18;9.68;;;;;;;;;;4909417;28;87445;-83
2021/05/05 06:32:01;;;;;;;10.65;10.15;;;9.60;99.90;;;;;;4908755;28;87878;-83
2021/05/05 06:34:27;;;;;;;10.45;9.95;;;9.60;99.90;;;;;;4908480;28;87036;-84
2021/05/05 06:36:53;;;;;;;8.63;8.23;;;9.60;99.90;;;;;;4908609;28;87674;-82
2021/05/05 06:39:19;;;;;;;8.68;8.38;;;9.60;99.90;;;;;;4911552;28;87381;-84
2021/05/05 06:41:45;;;;;;;9.30;8.80;;;9.70;99.90;;;;;;4909280;28;86555;-83
2021/05/05 06:44:11;;;;;;;12.60;12.05;;;;;;;;;;4908306;28;86991;-83
2021/05/05 06:46:43;;;;;;;10.98;10.48;;;9.70;99.90;;;;;;4908386;28;87235;-85
2021/05/05 06:49:13;;;;;;;9.88;9.48;;;9.70;99.90;;;;;;4906099;28;86751;-84
2021/05/05 06:51:39;;;;;;;9.60;9.13;;;9.80;99.90;;;;;;4888695;28;86931;-83
2021/05/05 06:54:05;;;;;;;8.23;7.93;;;9.70;99.90;;;;;;4908145;28;86985;-82
2021/05/05 06:56:31;;;;;;;6.57;6.28;;;9.80;99.90;;;;;;4888964;28;91870;-82
2021/05/05 06:58:56;;;;;;;6.43;5.93;;;9.80;99.90;;;;;;4906834;28;88169;-86
2021/05/05 07:01:22;;;;;;;6.35;5.97;;;9.60;99.90;;;;;;4907488;28;87031;-84
2021/05/05 07:03:49;;;;;;;6.72;6.40;;;9.40;99.90;;;;;;4906891;28;86426;-82
2021/05/05 07:06:17;;;;;;;6.93;6.63;;;9.30;99.90;;;;;;4905006;28;91983;-82
2021/05/05 07:08:42;;;;;;;6.22;5.93;;;9.20;99.90;;;;;;4890461;28;87923;-82
2021/05/05 07:11:08;;;;;;;6.57;6.07;;;9.30;99.90;;;;;;4906678;28;87068;-82
2021/05/05 07:13:34;;;;;;;9.73;9.32;;;;;;;;;;4907248;28;86006;-83
2021/05/05 07:16:00;;;;;;;6.90;6.60;;;9.00;99.90;;;;;;4906232;28;87660;-82
2021/05/05 07:18:26;;;;;;;4.55;4.35;;;9.00;99.90;;;;;;4906526;28;87559;-83
2021/05/05 07:20:52;;;;;;;5.20;4.95;;;8.80;99.90;;;;;;4905688;28;87773;-82
2021/05/05 07:23:18;;;;;;;5.18;4.97;;;8.70;99.90;;;;;;4906181;28;87111;-82
2021/05/05 07:25:44;;;;;;;7.93;7.63;;;;;;;;;;4906831;28;87243;-83
2021/05/05 07:28:10;;;;;;;5.40;5.20;;;8.70;99.90;;;;;;4906891;28;86820;-82
2021/05/05 07:30:36;;;;;;;5.22;5.03;;;8.60;99.90;;;;;;4890060;28;86949;-82
2021/05/05 07:33:02;;;;;;;5.85;5.65;;;8.60;99.90;;;;;;4906184;28;87101;-83
2021/05/05 07:35:29;;;;;;;4.82;4.63;;;8.50;99.90;;;;;;4905836;28;87700;-83
2021/05/05 07:48:08;;;;;;;4.85;4.65;;;8.60;99.90;;;;;;4907488;28;87868;-82
2021/05/05 07:50:34;;;;;;;5.18;4.97;;;8.70;99.90;;;;;;4918576;28;86952;-83
2021/05/05 07:53:00;;;;;;;5.35;5.15;;;8.70;99.90;;;;;;4925582;28;87028;-84
2021/05/05 07:55:27;;;;;;;5.93;5.63;;;8.80;99.90;;;;;;4925269;28;87309;-84
2021/05/05 07:57:53;;;;;;;6.35;5.95;;;8.80;99.90;;;;;;4925368;28;87713;-82
2021/05/05 08:00:21;;;;;;;5.88;5.60;;;8.80;99.90;;;;;;4925177;28;86845;-81
2021/05/05 08:02:47;;;;;;;6.32;6.03;;;8.70;99.90;;;;;;4925748;28;86147;-81
2021/05/05 08:05:12;;;;;;;6.78;6.47;;;8.80;99.90;;;;;;4925511;28;87765;-81
2021/05/05 08:07:38;;;;;;;7.20;6.90;;;8.80;99.90;;;;;;4930350;28;87766;-81
2021/05/05 08:10:06;;;;;;;6.90;6.55;;;8.90;99.90;;;;;;4925145;28;87923;-81
2021/05/05 08:12:33;;;;;;;5.90;5.70;;;8.90;99.90;;;;;;4919160;28;87065;-81
2021/05/05 08:14:59;;;;;;;6.82;6.53;;;9.00;99.90;;;;;;4925112;28;86627;-84
2021/05/05 08:17:25;;;;;;;6.22;6.03;;;9.20;99.90;;;;;;4925356;28;87052;-83
2021/05/05 08:19:51;;;;;;;6.00;5.80;;;9.20;99.90;;;;;;4925712;28;86902;-83
2021/05/05 08:22:17;;;;;;;6.68;6.25;;;9.30;99.90;;;;;;4924871;28;87193;-84
2021/05/05 08:24:43;;;;;;;7.85;7.43;;;9.50;99.90;;;;;;4923402;28;92648;-83
2021/05/05 08:27:10;;;;;;;7.18;6.88;;;9.40;99.90;;;;;;4922709;28;91164;-81
2021/05/05 08:29:35;;;;;;;9.70;9.23;;;9.50;99.90;;;;;;4923248;28;91889;-83
2021/05/05 08:32:02;;;;;;;8.13;7.80;;;9.50;99.90;;;;;;4922792;28;92055;-82
2021/05/05 08:34:28;;;;;;;9.38;8.90;;;9.40;99.90;;;;;;4922087;28;93341;-81
2021/05/05 08:36:55;;;;;;;5.32;5.13;;;9.40;99.90;;;;;;4904470;28;96254;-82
2021/05/05 08:39:22;;;;;;;5.30;5.10;;;9.50;99.90;;;;;;4927152;28;92047;-81
2021/05/05 08:41:48;;;;;;;5.55;5.35;;;9.50;99.90;;;;;;4924089;28;92042;-80
2021/05/05 08:44:15;;;;;;;5.35;5.15;;;9.50;99.90;;;;;;4922584;28;93277;-82
2021/05/05 08:46:43;;;;;;;5.30;5.07;;;9.50;99.90;;;;;;4922136;28;92317;-84
2021/05/05 08:49:10;;;;;;;10.02;9.52;;;9.60;99.90;;;;;;4922148;28;92014;-84
2021/05/05 08:51:37;;;;;;;5.95;5.75;;;9.60;99.90;;;;;;4922367;28;91433;-84
2021/05/05 08:54:04;;;;;;;5.82;5.55;;;9.80;99.90;;;;;;4921332;28;92509;-83
2021/05/05 08:56:35;;;;;;;6.00;5.80;;;9.90;99.90;;;;;;4922561;28;92352;-86
2021/05/05 08:59:10;;;;;;;5.07;4.88;;;9.90;99.90;;;;;;4923315;28;92668;-81
2021/05/05 09:01:37;;;;;;;9.10;8.77;;;10.00;99.90;;;;;;4924200;28;91628;-81
2021/05/05 09:04:04;;;;;;;6.00;5.55;;;10.00;99.90;;;;;;4925457;28;92545;-82
2021/05/05 09:06:56;;;;;;;7.63;7.22;;;10.10;99.90;;;;;;4925320;28;91921;-80
2021/05/05 09:09:43;;;;;;;5.85;5.55;;;10.10;99.90;;;;;;4921368;28;92144;-81
2021/05/05 09:12:12;;;;;;;5.88;5.38;;;10.30;99.90;;;;;;4925463;28;91537;-83
2021/05/05 09:14:56;;;;;;;6.22;5.53;;;10.40;99.90;;;;;;4926673;28;91949;-82
2021/05/05 09:17:26;;;;;;;6.68;5.95;;;10.40;99.90;;;;;;4919609;28;91321;-84
2021/05/05 09:20:04;;;;;;;5.90;5.60;;;10.50;99.90;;;;;;4926589;28;91947;-85
2021/05/05 09:22:36;;;;;;;8.15;7.65;;;10.70;99.90;;;;;;4925076;28;91534;-82
2021/05/05 09:25:08;;;;;;;9.05;8.48;;;10.70;99.90;;;;;;4924250;28;94243;-82
2021/05/05 09:27:35;;;;;;;16.10;15.27;;;10.80;99.90;;;;;;4906999;28;94216;-81
2021/05/05 09:30:04;;;;;;;6.68;6.28;;;10.80;99.90;;;;;;4924643;28;91905;-82
2021/05/05 09:32:44;;;;;;;6.40;6.20;;;10.70;99.90;;;;;;4925764;28;91992;-80
2021/05/05 09:35:10;;;;;;;6.53;6.18;;;10.50;99.90;;;;;;4918495;28;91875;-83
2021/05/05 09:37:36;;;;;;;7.53;7.22;;;10.50;99.90;;;;;;4924962;28;91803;-82
2021/05/05 09:40:10;;;;;;;9.57;9.23;;;10.40;99.90;;;;;;4925783;28;92063;-83
2021/05/05 09:42:37;;;;;;;6.30;6.10;;;10.20;99.90;;;;;;4926703;28;91269;-83
2021/05/05 09:45:05;;;;;;;11.93;11.40;;;10.00;99.90;;;;;;4912090;28;94831;-83
2021/05/05 09:48:06;;;;;;;9.68;9.27;;;9.80;99.90;;;;;;4907450;28;93047;-84
2021/05/05 09:50:33;;;;;;;;;;;9.40;99.90;;;;;;4884529;28;92923;-82
2021/05/05 09:53:16;;;;;;;5.15;4.95;;;9.30;99.90;;;;;;4919794;28;92137;-84
2021/05/05 09:56:06;;;;;;;6.63;6.30;;;9.10;99.90;;;;;;4915709;28;92393;-82
2021/05/05 09:58:44;;;;;;;5.72;5.53;;;9.00;99.90;;;;;;4913637;28;92350;-81
2021/05/05 10:01:14;;;;;;;6.63;6.22;;;9.10;99.90;;;;;;4925784;28;91999;-82
2021/05/05 10:03:48;;;;;;;9.35;8.70;;;9.20;99.90;;;;;;4925652;28;92450;-84
2021/05/05 10:06:36;;;;;;;8.57;7.97;;;9.20;99.90;;;;;;4926000;28;92341;-85
2021/05/05 10:09:10;;;;;;;8.65;8.10;;;9.30;99.90;;;;;;4924828;28;91943;-82
2021/05/05 10:11:38;;;;;;;8.32;7.80;;;9.30;99.90;;;;;;4925908;28;91977;-82
2021/05/05 10:14:07;;;;;;;8.20;7.65;;;9.30;99.90;;;;;;4921524;28;91789;-84
2021/05/05 10:16:40;;;;;;;12.20;11.52;;;10.20;99.90;;;;;;4925437;28;93154;-83
2021/05/05 10:19:27;;;;;;;12.45;11.85;;;8.50;99.90;;;;;;4924216;28;92447;-90
2021/05/05 10:21:59;;;;;;;10.57;10.10;;;9.00;99.90;;;;;;4923533;28;91654;-82
2021/05/05 10:24:26;;;;;;;9.57;8.98;;;8.90;99.90;;;;;;4924058;28;91992;-83
2021/05/05 10:26:53;;;;;;;9.75;9.25;;;8.70;99.90;;;;;;4925785;28;93178;-82
2021/05/05 10:29:20;;;;;;;9.60;9.18;;;8.50;99.90;;;;;;4920500;28;93403;-81
2021/05/05 10:31:51;;;;;;;10.15;9.63;;;8.40;99.90;;;;;;4923605;28;92043;-84
2021/05/05 10:34:22;;;;;;;9.02;8.45;;;8.30;99.90;;;;;;4925643;28;91193;-85
2021/05/05 10:36:56;;;;;;;7.17;6.67;;;8.00;99.90;;;;;;4908176;28;94218;-83
2021/05/05 10:39:22;;;;;;;7.78;7.38;;;7.80;99.90;;;;;;4922267;28;92176;-85
2021/05/05 10:42:26;;;;;;;5.60;5.20;;;7.60;99.90;;;;;;4931997;28;92914;-90
2021/05/05 10:44:54;;;;;;;7.22;5.55;;;7.40;99.90;;;;;;4920864;28;92135;-83
2021/05/05 10:47:29;;;;;;;5.63;5.07;;;7.30;99.90;;;;;;4927032;28;92638;-83
2021/05/05 10:49:58;;;;;;;6.55;6.25;;;7.40;99.90;;;;;;4924412;28;93347;-84
2021/05/05 10:52:25;;;;;;;10.35;9.85;;;7.30;99.90;;;;;;4925554;28;92104;-84
2021/05/05 10:54:55;;;;;;;10.10;9.50;;;7.30;99.90;;;;;;4924258;28;92221;-82
2021/05/05 10:57:23;;;;;;;10.25;9.75;;;7.50;99.90;;;;;;4917575;28;92277;-85
2021/05/05 10:59:57;;;;;;;8.65;8.25;;;7.70;99.90;;;;;;4924595;28;91355;-86
2021/05/05 11:02:46;;;;;;;10.02;9.63;;;7.70;99.90;;;;;;4935303;28;91999;-83
2021/05/05 11:05:15;;;;;;;8.75;8.35;;;7.50;99.90;;;;;;4928278;28;91930;-85
2021/05/05 11:07:51;;;;;;;9.27;8.88;;;7.50;99.90;;;;;;4930474;28;94152;-84
2021/05/05 11:13:01;;;;;;;8.95;8.55;;;7.70;99.90;;;;;;4922633;28;91898;-83
2021/05/05 11:15:45;;;;;;;8.27;7.78;;;7.90;99.90;;;;;;4925194;28;91740;-85
2021/05/05 11:18:29;;;;;;;7.55;7.22;;;8.00;99.90;;;;;;4909205;28;93331;-85
2021/05/05 11:20:55;;;;;;;8.32;7.82;;;8.30;99.90;;;;;;4924857;28;92020;-86
2021/05/05 11:23:33;;;;;;;9.80;9.30;;;8.40;99.90;;;;;;4907399;28;91193;-86
2021/05/05 11:26:27;;;;;;;10.48;10.02;;;8.50;99.90;;;;;;4924597;28;90728;-81
2021/05/05 11:29:04;;;;;;;5.97;5.72;;;8.80;99.90;;;;;;4924206;28;92519;-81
2021/05/05 11:31:50;;;;;;;6.80;6.45;;;10.20;99.90;;;;;;4924669;28;91941;-82
2021/05/05 11:34:19;;;;;;;5.43;5.22;;;11.20;99.90;;;;;;4921998;28;92863;-83
2021/05/05 11:37:05;;;;;;;9.10;8.77;;;12.30;99.90;;;;;;4924539;28;91787;-83
2021/05/05 11:39:36;;;;;;;24.52;23.52;;;14.00;98.60;;;;;;4900066;28;92237;-82
2021/05/05 11:42:05;;;;;;;;;;;16.30;94.90;;;;;;4907503;28;92185;-83
2021/05/05 11:44:39;;;;;;;18.52;17.73;;;18.90;80.50;;;;;;4926028;28;92229;-83
2021/05/05 11:47:15;;;;;;;17.42;16.73;;;21.60;64.00;;;;;;4924390;28;92018;-83
2021/05/05 11:49:49;;;;;;;11.55;10.98;;;21.90;59.10;;;;;;4918056;28;92296;-83
2021/05/05 11:52:27;;;;;;;10.82;10.13;;;21.00;58.70;;;;;;4938124;28;92531;-84
2021/05/05 11:55:01;;;;;;;10.68;10.18;;;19.80;55.80;;;;;;4922081;28;92044;-85
2021/05/05 11:57:30;;;;;;;9.57;8.98;;;18.10;60.70;;;;;;4919878;28;91952;-84
2021/05/05 12:00:08;;;;;;;8.45;7.95;;;16.60;66.50;;;;;;4921916;28;92983;-85
2021/05/05 12:02:49;;;;;;;8.07;7.57;;;15.10;72.80;;;;;;4926031;28;94479;-85
2021/05/05 12:05:43;;;;;;;9.30;8.77;;;13.60;81.00;;;;;;4907815;28;92010;-85
2021/05/05 12:08:23;;;;;;;9.43;8.73;;;12.50;89.80;;;;;;4922892;28;92057;-83
2021/05/05 12:10:58;;;;;;;27.10;25.80;;;11.60;94.00;;;;;;4926089;28;92031;-84
2021/05/05 12:13:38;;;;;;;30.20;28.88;;;11.30;95.90;;;;;;4923869;28;95042;-83
2021/05/05 12:16:17;;;;;;;8.02;7.43;;;11.20;97.90;;;;;;4926012;28;91863;-82
2021/05/05 12:18:49;;;;;;;13.10;12.25;;;11.10;98.60;;;;;;4927152;28;91111;-85
2021/05/05 12:21:18;;;;;;;12.00;11.45;;;12.50;97.80;;;;;;4924064;28;91996;-84
2021/05/05 12:23:47;;;;;;;11.13;10.52;;;14.60;90.90;;;;;;4923724;28;91893;-83
2021/05/05 12:26:31;;;;;;;8.32;7.57;;;17.00;82.60;;;;;;4924456;28;92856;-83
2021/05/05 12:29:01;;;;;;;14.13;13.30;;;19.00;72.20;;;;;;4902330;28;92054;-84
2021/05/05 12:31:30;;;;;;;38.42;36.83;;;21.10;62.50;;;;;;4924439;28;92266;-84
2021/05/05 12:34:00;;;;;;;23.10;21.98;;;22.50;55.40;;;;;;4924374;28;91908;-83
2021/05/05 12:36:28;;;;;;;25.33;24.17;;;23.00;53.00;;;;;;4925221;28;92374;-85
2021/05/05 12:38:59;;;;;;;13.38;12.75;;;23.80;50.10;;;;;;4928429;28;91829;-84
2021/05/05 12:41:39;;;;;;;23.88;22.80;;;25.00;50.10;;;;;;4929941;28;92019;-87
2021/05/05 12:44:05;;;;;;;16.17;15.40;;;26.20;45.50;;;;;;4931343;28;91480;-85
2021/05/05 12:49:29;;;;;;;45.67;43.90;;;27.30;39.40;;;;;;4930101;28;91915;-85
2021/05/05 12:51:56;;;;;;;43.00;41.22;;;27.90;39.80;;;;;;4928976;28;94604;-87
2021/05/05 12:54:29;;;;;;;50.58;48.38;;;26.50;37.60;;;;;;4913098;28;93002;-85
2021/05/05 12:56:55;;;;;;;41.28;39.47;;;25.10;39.60;;;;;;4931598;28;92075;-86
2021/05/05 12:59:30;;;;;;;28.70;27.38;;;23.10;41.50;;;;;;4939919;28;92050;-84
2021/05/05 13:02:08;;;;;;;11.68;11.18;;;21.30;44.50;;;;;;4929371;28;93071;-84
2021/05/05 13:04:39;;;;;;;11.43;10.70;;;19.50;48.60;;;;;;4928908;28;93032;-84
2021/05/05 13:07:05;;;;;;;76.78;73.60;;;17.00;64.20;;;;;;4926050;28;92041;-85
2021/05/05 13:09:33;;;;;;;54.47;52.08;;;16.50;55.60;;;;;;4928332;28;91060;-87
2021/05/05 13:15:46;;;;;;;7.38;6.88;;;14.60;60.10;;;;;;4901795;28;91915;-84
2021/05/05 13:25:46;;;;;;;24.90;23.73;;;13.30;65.90;;;;;;4926493;28;91475;-81
2021/05/05 13:31:50;;;;;;;12.63;12.02;;;12.00;73.90;;;;;;4924677;28;92017;-86
2021/05/05 13:34:18;;;;;;;8.73;8.10;;;11.80;71.90;;;;;;4922510;28;92275;-86
2021/05/05 13:36:48;;;;;;;9.05;8.23;;;11.70;73.10;;;;;;4930566;28;91166;-82
2021/05/05 13:39:14;;;;;;;9.85;8.93;;;11.60;73.70;;;;;;4929689;28;91902;-86
2021/05/05 13:41:41;;;;;;;8.00;7.60;;;11.90;70.40;;;;;;4929547;28;91993;-87
2021/05/05 13:44:14;;;;;;;11.88;11.25;;;12.90;78.30;;;;;;4915559;28;94781;-84
2021/05/05 13:52:01;;;;;;;21.08;20.15;;;15.50;59.70;;;;;;4927840;28;91874;-82
2021/05/05 13:54:27;;;;;;;29.15;27.85;;;16.30;55.20;;;;;;4928908;28;93251;-82
2021/05/05 13:56:53;;;;;;;101.57;97.32;;;16.50;57.30;;;;;;4933345;28;91365;-83
2021/05/05 13:59:19;;;;;;;66.05;63.35;;;;;;;;;;4932747;28;91667;-84
2021/05/05 14:01:45;;;;;;;89.28;85.63;;;;;;;;;;4942521;28;90985;-85
2021/05/05 14:04:11;;;;;;;128.45;123.05;;;15.40;57.10;;;;;;4928330;28;91781;-87
2021/05/05 14:06:41;;;;;;;113.85;109.07;;;15.00;58.10;;;;;;4920432;28;94912;-86
2021/05/05 14:09:07;;;;;;;48.63;46.20;;;14.50;59.00;;;;;;4933380;28;92667;-85
2021/05/05 14:11:33;;;;;;;58.85;56.20;;;14.00;61.50;;;;;;4931652;28;91988;-82
2021/05/05 14:13:58;;;;;;;63.03;60.38;;;13.70;62.10;;;;;;4928263;28;92023;-82
2021/05/05 14:16:24;;;;;;;31.80;30.40;;;13.30;63.90;;;;;;4925577;28;92278;-81
2021/05/05 14:18:50;;;;;;;17.05;16.15;;;12.90;65.30;;;;;;4925805;28;91898;-82
2021/05/05 14:21:18;;;;;;;17.20;16.25;;;12.50;68.20;;;;;;4926183;28;92133;-83
2021/05/05 14:23:44;;;;;;;22.10;21.08;;;12.20;68.10;;;;;;4925615;28;91953;-84
2021/05/05 14:26:10;;;;;;;27.02;25.88;;;12.40;69.70;;;;;;4930971;28;91186;-83
2021/05/05 14:28:40;;;;;;;49.10;47.13;;;13.10;67.70;;;;;;4925597;28;91584;-83
2021/05/05 14:31:07;;;;;;;20.50;19.35;;;14.00;67.50;;;;;;4925750;28;91253;-83
2021/05/05 14:33:33;;;;;;;15.70;14.55;;;14.80;60.90;;;;;;4920439;28;94198;-84
2021/05/05 14:35:59;;;;;;;24.75;23.65;;;15.60;61.30;;;;;;4927010;28;92944;-83
2021/05/05 14:38:26;;;;;;;92.85;89.07;;;16.40;60.00;;;;;;4909999;28;91924;-86
2021/05/05 14:40:53;;;;;;;25.98;24.63;;;17.00;55.90;;;;;;4926633;28;92081;-83
2021/05/05 14:43:30;;;;;;;12.77;11.90;;;17.50;54.90;;;;;;4923771;28;92841;-84
2021/05/05 14:48:31;;;;;;;39.05;37.38;;;17.50;50.50;;;;;;4923023;28;92021;-83
2021/05/05 14:50:58;;;;;;;60.65;58.30;;;17.80;51.40;;;;;;4948032;28;91152;-83
2021/05/05 14:53:25;;;;;;;82.78;79.43;;;18.10;51.10;;;;;;4945600;28;92801;-85
2021/05/05 14:55:54;;;;;;;17.90;17.08;;;18.20;48.70;;;;;;4929067;28;94316;-83
2021/05/05 14:58:41;;;;;;;8.57;7.95;;;17.80;46.90;;;;;;4960657;28;92910;-83
2021/05/05 15:01:10;;;;;;;9.98;9.45;;;17.20;48.90;;;;;;4962878;28;91965;-85
2021/05/05 15:03:42;;;;;;;20.38;19.38;;;17.10;50.60;;;;;;4948758;28;91948;-82
2021/05/05 15:06:13;;;;;;;30.73;29.27;;;17.30;54.40;;;;;;4957089;28;92116;-83
2021/05/05 15:12:00;;;;;;;94.60;90.80;;;16.70;50.20;;;;;;5042635;22;93446;-83
2021/05/05 15:14:11;;;;;;;65.57;62.53;;;16.70;51.60;;;;;;4953730;28;92164;-83
2021/05/05 15:28:27;;;;;;;17.60;16.70;;;16.60;49.40;;;;;;4925305;28;92984;-84
2021/05/05 15:36:17;;;;;;;16.58;15.82;;;15.90;47.60;;;;;;4929606;28;91974;-83
2021/05/05 15:38:50;;;;;;;17.60;16.80;;;15.50;47.40;;;;;;4920367;28;92477;-83
2021/05/05 15:41:32;;;;;;;18.90;18.02;;;15.40;48.30;;;;;;4896790;28;91609;-83
2021/05/05 15:49:30;;;;;;;11.18;10.45;;;15.60;55.30;;;;;;4917831;28;92021;-84
2021/05/05 15:51:56;;;;;;;8.35;7.70;;;15.40;60.90;;;;;;4907135;28;93202;-85
2021/05/05 15:54:30;;;;;;;11.68;11.00;;;14.70;60.50;;;;;;4925716;28;91979;-83
2021/05/05 15:57:02;;;;;;;13.27;12.65;;;14.30;61.80;;;;;;4926197;28;92459;-83
2021/05/05 16:18:10;;;;;;;7.93;7.53;;;11.30;81.90;;;;;;4880405;28;94120;-83
2021/05/05 16:20:46;;;;;;;8.93;8.35;;;10.90;84.80;;;;;;4901666;28;92242;-83
2021/05/05 16:54:51;;;;;;;9.07;8.57;;;;;;;;;;4909162;28;91644;-84
2021/05/05 17:08:45;;;;;;;6.25;5.85;;;10.70;85.90;;;;;;4907598;28;91486;-82
2021/05/05 17:11:19;;;;;;;9.55;8.75;;;10.70;88.70;;;;;;4924756;28;93336;-84
2021/05/05 17:13:45;;;;;;;7.15;6.63;;;10.60;87.40;;;;;;4914950;28;92308;-84
2021/05/05 17:16:10;;;;;;;10.73;10.20;;;10.60;89.20;;;;;;4904936;28;91950;-87
2021/05/05 17:21:17;;;;;;;9.18;8.57;;;10.70;90.30;;;;;;4901937;28;92211;-83
2021/05/05 17:23:50;;;;;;;10.75;10.25;;;10.70;87.20;;;;;;4905137;28;92147;-84
2021/05/05 17:29:16;;;;;;;;;;;10.70;87.10;;;;;;4906933;28;90828;-83
2021/05/05 18:19:54;;;;;;;22.25;21.27;;;9.80;91.10;;;;;;4907370;28;92253;-80
2021/05/05 18:30:00;;;;;;;16.60;15.60;;;9.80;90.90;;;;;;4884934;28;92362;-84
2021/05/05 18:32:26;;;;;;;16.73;15.93;;;;;;;;;;4902531;28;92058;-81
2021/05/05 18:34:52;;;;;;;15.18;14.48;;;9.70;91.10;;;;;;4907295;28;92170;-83
2021/05/05 18:37:18;;;;;;;16.90;16.10;;;9.70;91.40;;;;;;4888259;28;94433;-83
2021/05/05 18:39:51;;;;;;;12.63;11.93;;;9.80;91.80;;;;;;4903887;28;92033;-83
2021/05/05 18:42:21;;;;;;;14.80;13.90;;;9.70;92.00;;;;;;4910027;28;91597;-85
2021/05/05 19:11:03;;;;;;;8.93;8.43;;;9.60;91.70;;;;;;4903607;28;91931;-83
2021/05/05 19:15:10;;;;;;;10.20;9.60;;;9.60;91.40;;;;;;4903948;28;91073;-80
